KACT/ACT METAR and TAF weather

Enter ICAO airport designator
Station Type Date Time Source
KACT METAR 2019/05/23 18:51 UTC NOAA

KACT 231851Z 16019G23KT 10SM SCT046 BKN050 33/21 A2996 RMK AO2 PK WND 14027/1805 SLP136 T03330206


Station Type Date Time Source
KACT Decoded METAR 2019/05/23 18:51 UTC NOAA

WACO REGIONAL AIRPORT, TX, United States (KACT) 31-36N 97-13W 151M
May 23, 2019 - 02:51 PM EDT / 2019.05.23 1851 UTC
Wind: from the SSE (160 degrees) at 22 MPH (19 KT) gusting to 26 MPH (23 KT):0
Visibility: 10 mile(s):0
Sky conditions: mostly cloudy
Temperature: 91.9 F (33.3 C)
Heat index: 96.8 F (36.0 C):1
Dew Point: 69.1 F (20.6 C)
Relative Humidity: 47%
Pressure (altimeter): 29.96 in. Hg (1014 hPa)
ob: KACT 231851Z 16019G23KT 10SM SCT046 BKN050 33/21 A2996 RMK AO2 PK WND 14027/1805 SLP136 T03330206
cycle: 19

Station Type Date Time Source
KACT TAF 2019/05/23 18:33 UTC NOAA

TAF KACT 231730Z 2318/2418 16018G28KT P6SM BKN035
FM240000 15016KT P6SM SCT045
FM240400 15015KT P6SM SCT015 BKN025
FM240600 15014KT P6SM OVC018
FM241500 15014KT P6SM OVC025

Example: see airport list